createdAt,value
2018-10-03T00:01:39.524Z,98079.25
2018-10-03T00:04:09.245Z,98073.60
2018-10-03T00:06:39.056Z,98069.30
2018-10-03T00:09:09.913Z,98073.19
2018-10-03T00:11:39.808Z,98067.55
2018-10-03T00:14:09.574Z,98065.37
2018-10-03T00:16:39.428Z,98073.23
2018-10-03T00:19:09.215Z,98067.16
2018-10-03T00:21:39.013Z,98068.02
2018-10-03T00:24:08.816Z,98056.31
2018-10-03T00:26:38.579Z,98055.93
2018-10-03T00:29:08.438Z,98045.49
2018-10-03T00:31:38.240Z,98048.53
2018-10-03T00:34:08.128Z,98052.42
2018-10-03T00:36:37.953Z,98055.95
2018-10-03T00:39:09.828Z,98061.22
2018-10-03T00:41:40.265Z,98049.13
2018-10-03T00:44:10.065Z,98056.98
2018-10-03T00:46:39.919Z,98060.47
2018-10-03T00:49:10.137Z,98060.06
2018-10-03T00:51:40.071Z,98052.25
2018-10-03T00:54:09.800Z,98056.58
2018-10-03T00:56:39.693Z,98056.59
2018-10-03T00:59:09.520Z,98059.64
2018-10-03T01:01:39.335Z,98055.27
2018-10-03T01:04:09.123Z,98048.75
2018-10-03T01:06:38.919Z,98052.67
2018-10-03T01:09:08.759Z,98044.86
2018-10-03T01:11:38.539Z,98037.48
2018-10-03T01:14:08.405Z,98038.33
2018-10-03T01:16:38.173Z,98040.52
2018-10-03T01:19:08.047Z,98043.98
2018-10-03T01:21:37.881Z,98046.63
2018-10-03T01:24:07.709Z,98044.47
2018-10-03T01:26:37.569Z,98042.75
2018-10-03T01:29:07.333Z,98040.16
2018-10-03T01:31:37.169Z,98038.45
2018-10-03T01:34:07.093Z,98044.08
2018-10-03T01:36:36.870Z,98044.96
2018-10-03T01:39:08.713Z,98040.66
2018-10-03T01:41:38.979Z,98042.44
2018-10-03T01:44:09.226Z,98042.44
2018-10-03T01:46:40.219Z,98038.98
2018-10-03T01:49:10.300Z,98040.73
2018-10-03T01:51:40.765Z,98039.88
2018-10-03T01:54:11.069Z,98040.73
2018-10-03T01:56:42.080Z,98035.58
2018-10-03T01:59:12.505Z,98036.02
2018-10-03T02:01:42.314Z,98043.88
2018-10-03T02:04:12.620Z,98050.37
2018-10-03T02:06:42.729Z,98053.86
2018-10-03T02:09:12.985Z,98052.98
2018-10-03T02:11:43.378Z,98056.45
2018-10-03T02:14:13.745Z,98047.31
2018-10-03T02:16:44.087Z,98058.59
2018-10-03T02:19:14.437Z,98046.45
2018-10-03T02:21:45.253Z,98044.72
2018-10-03T02:24:15.497Z,98042.96
2018-10-03T02:26:45.924Z,98038.62
2018-10-03T02:29:16.763Z,98039.04
2018-10-03T02:31:46.477Z,98045.53
2018-10-03T02:34:16.141Z,98044.67
2018-10-03T02:36:46.096Z,98043.37
2018-10-03T02:39:16.714Z,98037.75
2018-10-03T02:41:47.148Z,98038.15
2018-10-03T02:44:17.051Z,98043.38
2018-10-03T02:46:46.694Z,98039.47
2018-10-03T02:49:18.123Z,98043.41
2018-10-03T02:51:49.242Z,98045.62
2018-10-03T02:54:18.993Z,98049.53
2018-10-03T02:56:49.364Z,98057.31
2018-10-03T02:59:19.844Z,98052.14
2018-10-03T03:01:49.635Z,98053.44
2018-10-03T03:04:20.081Z,98059.92
2018-10-03T03:06:51.744Z,98059.52
2018-10-03T03:09:21.398Z,98054.31
2018-10-03T03:11:51.853Z,98053.86
2018-10-03T03:14:22.098Z,98056.03
2018-10-03T03:16:52.427Z,98057.76
2018-10-03T03:19:22.494Z,98063.40
2018-10-03T03:21:53.470Z,98060.36
2018-10-03T03:24:23.392Z,98062.97
2018-10-03T03:26:54.453Z,98052.13
2018-10-03T03:29:24.440Z,98059.54
2018-10-03T03:31:54.804Z,98050.00
2018-10-03T03:34:24.417Z,98058.25
2018-10-03T03:36:55.306Z,98056.50
2018-10-03T03:39:25.950Z,98048.25
2018-10-03T03:41:56.760Z,98047.85
2018-10-03T03:44:26.773Z,98045.27
2018-10-03T03:46:56.460Z,98056.09
2018-10-03T03:49:26.107Z,98063.91
2018-10-03T03:51:56.335Z,98053.52
2018-10-03T03:54:26.056Z,98049.19
2018-10-03T03:56:57.810Z,98063.92
2018-10-03T03:59:28.364Z,98065.20
2018-10-03T04:01:58.764Z,98062.18
2018-10-03T04:04:29.014Z,98063.04
2018-10-03T04:06:58.810Z,98059.56
2018-10-03T04:09:28.989Z,98064.78
2018-10-03T04:11:59.158Z,98071.70
2018-10-03T04:14:29.179Z,98065.23
2018-10-03T04:16:59.602Z,98075.63
2018-10-03T04:19:30.050Z,98076.90
2018-10-03T04:22:00.148Z,98076.92
2018-10-03T04:24:29.930Z,98072.57
2018-10-03T04:27:00.609Z,98076.06
2018-10-03T04:29:31.491Z,98080.37
2018-10-03T04:32:04.910Z,98085.15
2018-10-03T04:34:35.174Z,98092.52
2018-10-03T04:37:05.057Z,98082.98
2018-10-03T04:39:35.685Z,98079.95
2018-10-03T04:42:05.864Z,98081.67
2018-10-03T04:44:35.851Z,98091.66
2018-10-03T04:47:06.064Z,98085.58
2018-10-03T04:49:35.748Z,98083.85
2018-10-03T04:52:05.451Z,98082.12
2018-10-03T04:54:35.122Z,98084.30
2018-10-03T04:57:05.931Z,98096.86
2018-10-03T04:59:35.938Z,98104.21
2018-10-03T05:02:05.713Z,98106.83
2018-10-03T05:04:35.700Z,98108.55
2018-10-03T05:07:06.035Z,98110.71
2018-10-03T05:09:36.298Z,98113.31
2018-10-03T05:12:06.681Z,98115.03
2018-10-03T05:14:36.766Z,98119.39
2018-10-03T05:17:06.671Z,98118.05
2018-10-03T05:19:38.038Z,98116.75
2018-10-03T05:22:08.089Z,98119.80
2018-10-03T05:24:38.747Z,98117.13
2018-10-03T05:27:09.899Z,98106.52
2018-10-03T05:29:39.591Z,98105.52
2018-10-03T05:32:09.696Z,98108.47
2018-10-03T05:34:39.875Z,98117.16
2018-10-03T05:37:10.350Z,98116.73
2018-10-03T05:39:40.942Z,98120.66
2018-10-03T05:42:10.617Z,98127.61
2018-10-03T05:44:40.983Z,98134.13
2018-10-03T05:47:11.542Z,98131.56
2018-10-03T05:49:41.905Z,98125.94
2018-10-03T05:52:12.163Z,98118.53
2018-10-03T05:54:42.511Z,98115.12
2018-10-03T05:57:13.405Z,98118.61
2018-10-03T05:59:43.075Z,98123.35
2018-10-03T06:02:12.734Z,98121.96
2018-10-03T06:04:43.631Z,98123.11
2018-10-03T06:07:13.716Z,98117.73
2018-10-03T06:09:43.840Z,98113.05
2018-10-03T06:12:14.207Z,98121.36
2018-10-03T06:14:44.044Z,98126.52
2018-10-03T06:17:14.163Z,98121.64
2018-10-03T06:19:43.957Z,98126.77
2018-10-03T06:22:13.889Z,98123.22
2018-10-03T06:24:44.623Z,98121.38
2018-10-03T06:27:15.843Z,98122.91
2018-10-03T06:29:45.651Z,98124.42
2018-10-03T06:32:16.882Z,98125.17
2018-10-03T06:34:48.109Z,98125.05
2018-10-03T06:37:18.078Z,98122.26
2018-10-03T06:39:48.513Z,98111.67
2018-10-03T06:42:20.595Z,98107.24
2018-10-03T06:44:51.341Z,98113.69
2018-10-03T06:47:22.367Z,98125.87
2018-10-03T06:49:52.754Z,98133.14
2018-10-03T06:52:22.681Z,98120.69
2018-10-03T06:54:52.379Z,98134.85
2018-10-03T06:57:22.553Z,98132.05
2018-10-03T06:59:53.500Z,98135.28
2018-10-03T07:02:23.398Z,98133.53
2018-10-03T07:04:53.479Z,98137.19
2018-10-03T07:07:24.007Z,98151.82
2018-10-03T07:09:54.583Z,98134.22
2018-10-03T07:12:25.454Z,98143.85
2018-10-03T07:14:56.716Z,98140.73
2018-10-03T07:17:26.919Z,98152.11
2018-10-03T07:19:58.044Z,98156.22
2018-10-03T07:22:34.969Z,98145.27
2018-10-03T07:25:05.114Z,98162.50
2018-10-03T07:27:36.022Z,98154.79
2018-10-03T07:30:06.268Z,98157.78
2018-10-03T07:32:38.288Z,98156.50
2018-10-03T07:35:08.911Z,98160.19
2018-10-03T07:37:39.029Z,98167.20
2018-10-03T07:40:09.021Z,98166.44
2018-10-03T07:42:39.678Z,98162.60
2018-10-03T07:45:10.681Z,98169.36
2018-10-03T07:47:41.662Z,98163.77
2018-10-03T07:50:11.660Z,98160.47
2018-10-03T07:52:42.374Z,98164.92
2018-10-03T07:55:12.081Z,98163.44
2018-10-03T07:57:42.881Z,98157.49
2018-10-03T08:00:13.484Z,98163.79
2018-10-03T08:02:44.116Z,98164.66
2018-10-03T08:05:15.031Z,98165.73
2018-10-03T08:07:45.973Z,98164.02
2018-10-03T08:10:16.036Z,98159.85
2018-10-03T08:12:46.810Z,98155.23
2018-10-03T08:15:17.988Z,98153.52
2018-10-03T08:17:48.326Z,98154.38
2018-10-03T08:20:19.644Z,98147.39
2018-10-03T08:22:49.757Z,98145.45
2018-10-03T08:25:19.799Z,98153.68
2018-10-03T08:27:49.881Z,98157.78
2018-10-03T08:30:20.142Z,98161.56
2018-10-03T08:32:50.819Z,98159.67
2018-10-03T08:35:20.877Z,98158.36
2018-10-03T08:37:51.432Z,98153.91
2018-10-03T08:40:21.431Z,98150.05
2018-10-03T08:42:51.195Z,98153.97
2018-10-03T08:45:21.465Z,98153.52
2018-10-03T08:47:53.167Z,98163.98
2018-10-03T08:50:22.878Z,98163.32
2018-10-03T08:52:52.861Z,98157.08
2018-10-03T08:55:22.959Z,98148.27
2018-10-03T08:57:53.204Z,98151.92
2018-10-03T09:00:23.650Z,98147.31
2018-10-03T09:02:54.471Z,98156.73
2018-10-03T09:05:26.206Z,98159.66
2018-10-03T09:08:07.822Z,98159.45
2018-10-03T09:10:38.032Z,98168.42
2018-10-03T09:13:08.397Z,98163.39
2018-10-03T09:15:39.109Z,98159.09
2018-10-03T09:18:09.100Z,98161.34
2018-10-03T09:20:39.413Z,98168.88
2018-10-03T09:23:10.244Z,98164.48
2018-10-03T09:25:41.245Z,98173.53
2018-10-03T09:28:11.330Z,98167.80
2018-10-03T09:30:41.234Z,98169.34
2018-10-03T09:33:11.221Z,98167.62
2018-10-03T09:35:41.606Z,98172.23
2018-10-03T09:38:12.881Z,98164.45
2018-10-03T09:40:43.377Z,98160.59
2018-10-03T09:43:13.638Z,98162.03
2018-10-03T09:45:43.915Z,98157.45
2018-10-03T09:48:14.593Z,98149.72
2018-10-03T09:50:45.283Z,98152.98
2018-10-03T09:53:15.863Z,98151.67
2018-10-03T09:55:46.348Z,98149.35
2018-10-03T09:58:17.049Z,98150.11
2018-10-03T10:00:52.031Z,98153.26
2018-10-03T10:03:23.453Z,98154.88
2018-10-03T10:05:53.142Z,98156.74
2018-10-03T10:08:22.899Z,98163.91
2018-10-03T10:10:53.743Z,98164.73
2018-10-03T10:13:24.583Z,98160.14
2018-10-03T10:15:55.431Z,98161.70
2018-10-03T10:18:25.177Z,98164.52
2018-10-03T10:20:55.887Z,98166.58
2018-10-03T10:23:26.049Z,98162.02
2018-10-03T10:25:56.084Z,98166.48
2018-10-03T10:28:26.714Z,98159.73
2018-10-03T10:30:56.882Z,98160.28
2018-10-03T10:33:34.587Z,98159.73
2018-10-03T10:36:05.137Z,98157.26
2018-10-03T10:38:35.374Z,98156.64
2018-10-03T10:41:05.062Z,98151.03
2018-10-03T10:43:34.709Z,98148.42
2018-10-03T10:46:04.857Z,98141.86
2018-10-03T10:48:34.591Z,98140.84
2018-10-03T10:51:04.823Z,98136.95
2018-10-03T10:53:35.932Z,98141.45
2018-10-03T10:56:05.887Z,98133.30
2018-10-03T10:58:36.085Z,98128.39
2018-10-03T11:01:05.847Z,98131.07
2018-10-03T11:03:35.650Z,98126.08
2018-10-03T11:06:07.842Z,98123.61
2018-10-03T11:08:38.014Z,98119.67
2018-10-03T11:11:08.667Z,97176.73
2018-10-03T11:13:39.192Z,98107.47
2018-10-03T11:16:09.342Z,98113.69
2018-10-03T11:18:40.090Z,98117.19
2018-10-03T11:21:10.785Z,98121.94
2018-10-03T11:23:41.075Z,98110.62
2018-10-03T11:26:12.421Z,98103.16
2018-10-03T11:28:42.410Z,98106.22
2018-10-03T11:31:13.939Z,98109.19
2018-10-03T11:33:43.640Z,98102.69
2018-10-03T11:36:13.358Z,98090.08
2018-10-03T11:38:43.731Z,98093.68
2018-10-03T11:41:14.704Z,98087.60
2018-10-03T11:43:44.712Z,98082.23
2018-10-03T11:46:15.500Z,98084.23
2018-10-03T11:48:46.046Z,98086.16
2018-10-03T11:51:15.774Z,98083.58
2018-10-03T11:53:45.743Z,98079.15
2018-10-03T11:56:16.201Z,98078.70
2018-10-03T11:58:46.955Z,98081.61
2018-10-03T12:01:18.276Z,98072.27
2018-10-03T12:03:49.517Z,98076.17
2018-10-03T12:06:19.622Z,98079.15
2018-10-03T12:08:49.665Z,98082.33
2018-10-03T12:11:20.324Z,98079.95
2018-10-03T12:13:51.337Z,98074.01
2018-10-03T12:16:21.571Z,98068.92
2018-10-03T12:18:53.170Z,98069.76
2018-10-03T12:21:24.102Z,98071.94
2018-10-03T12:23:54.429Z,98077.58
2018-10-03T12:26:26.338Z,98079.87
2018-10-03T12:28:57.069Z,98077.65
2018-10-03T12:31:26.928Z,98083.64
2018-10-03T12:33:57.436Z,98083.84
2018-10-03T12:36:28.718Z,98079.02
2018-10-03T12:38:58.941Z,98077.23
2018-10-03T12:41:29.625Z,98073.11
2018-10-03T12:43:59.343Z,98071.09
2018-10-03T12:46:29.591Z,98080.12
2018-10-03T12:48:59.370Z,98079.77
2018-10-03T12:51:30.249Z,98077.59
2018-10-03T12:54:00.541Z,98077.35
2018-10-03T12:56:31.520Z,98073.70
2018-10-03T12:59:01.783Z,98066.81
2018-10-03T13:01:32.267Z,98065.98
2018-10-03T13:04:03.480Z,98059.55
2018-10-03T13:06:34.240Z,98061.57
2018-10-03T13:09:05.784Z,98066.74
2018-10-03T13:11:35.715Z,98055.99
2018-10-03T13:14:05.616Z,98047.69
2018-10-03T13:16:35.533Z,98052.52
2018-10-03T13:19:05.459Z,98049.41
2018-10-03T13:21:35.316Z,98045.69
2018-10-03T13:24:05.211Z,98046.83
2018-10-03T13:26:35.327Z,98039.75
2018-10-03T13:29:05.169Z,98043.66
2018-10-03T13:31:35.068Z,98038.86
2018-10-03T13:34:04.841Z,98040.48
2018-10-03T13:36:34.756Z,98036.87
2018-10-03T13:39:05.283Z,98040.69
2018-10-03T13:41:35.221Z,98041.92
2018-10-03T13:44:05.023Z,98039.23
2018-10-03T13:46:34.893Z,98037.36
2018-10-03T13:49:04.737Z,98041.15
2018-10-03T13:51:34.567Z,98032.90
2018-10-03T13:54:04.450Z,98027.66
2018-10-03T13:56:34.382Z,98033.83
2018-10-03T13:59:04.225Z,98038.38
2018-10-03T14:01:34.169Z,98033.98
2018-10-03T14:04:04.021Z,98026.00
2018-10-03T14:06:33.913Z,98023.39
2018-10-03T14:09:03.900Z,98026.13
2018-10-03T14:11:33.725Z,98027.16
2018-10-03T14:14:03.563Z,98033.52
2018-10-03T14:16:33.454Z,98026.83
2018-10-03T14:19:03.349Z,98023.14
2018-10-03T14:21:33.125Z,98029.96
2018-10-03T14:24:03.040Z,98033.16
2018-10-03T14:26:32.872Z,98030.20
2018-10-03T14:29:02.752Z,98027.47
2018-10-03T14:31:32.538Z,98027.28
2018-10-03T14:34:02.452Z,98030.04
2018-10-03T14:36:32.414Z,98026.42
2018-10-03T14:39:02.199Z,98013.67
2018-10-03T14:41:31.986Z,98021.49
2018-10-03T14:44:01.806Z,98037.44
2018-10-03T14:46:31.755Z,98047.48
2018-10-03T14:49:01.608Z,98052.69
2018-10-03T14:51:31.459Z,98048.28
2018-10-03T14:54:01.356Z,98051.44
2018-10-03T14:56:31.332Z,98056.42
2018-10-03T14:59:01.276Z,98055.21
2018-10-03T15:01:31.065Z,98055.83
2018-10-03T15:04:00.847Z,98045.44
2018-10-03T15:06:30.711Z,98050.45
2018-10-03T15:09:00.584Z,98046.71
2018-10-03T15:11:30.394Z,98045.66
2018-10-03T15:14:00.296Z,98044.45
2018-10-03T15:16:30.235Z,98038.91
2018-10-03T15:19:00.100Z,98045.71
2018-10-03T15:21:29.918Z,98042.94
2018-10-03T15:23:59.871Z,98047.16
2018-10-03T15:26:29.758Z,98043.77
2018-10-03T15:28:59.640Z,98041.84
2018-10-03T15:31:29.430Z,98043.00
2018-10-03T15:33:59.352Z,98053.28
2018-10-03T15:36:29.274Z,98059.48
2018-10-03T15:38:59.116Z,98047.06
2018-10-03T15:41:30.412Z,98054.84
2018-10-03T15:44:00.492Z,98056.91
2018-10-03T15:46:30.391Z,98055.83
2018-10-03T15:49:00.273Z,98066.86
2018-10-03T15:51:30.005Z,98060.56
2018-10-03T15:53:59.965Z,98060.55
2018-10-03T15:56:29.865Z,98057.45
2018-10-03T15:58:59.779Z,98067.42
2018-10-03T16:01:29.728Z,98075.53
2018-10-03T16:03:59.652Z,98078.10
2018-10-03T16:06:29.621Z,98077.51
2018-10-03T16:08:59.583Z,98085.56
2018-10-03T16:11:29.385Z,98086.08
2018-10-03T16:13:59.231Z,98088.37
2018-10-03T16:16:29.143Z,98097.13
2018-10-03T16:18:59.000Z,98103.20
2018-10-03T16:21:28.814Z,98107.16
2018-10-03T16:23:58.889Z,98120.03
2018-10-03T16:26:28.843Z,98120.03
2018-10-03T16:28:58.716Z,98121.77
2018-10-03T16:31:28.604Z,98132.73
2018-10-03T16:33:58.358Z,98138.72
2018-10-03T16:36:28.243Z,98144.19
2018-10-03T16:38:58.232Z,98136.00
2018-10-03T16:41:28.001Z,98145.84
2018-10-03T16:43:57.865Z,98150.89
2018-10-03T16:46:27.939Z,98147.08
2018-10-03T16:48:57.888Z,98156.48
2018-10-03T16:51:27.774Z,98157.89
2018-10-03T16:53:57.674Z,98162.80
2018-10-03T16:56:27.589Z,98165.12
2018-10-03T16:58:57.545Z,98179.70
2018-10-03T17:01:27.375Z,98178.47
2018-10-03T17:03:57.198Z,98183.84
2018-10-03T17:06:27.084Z,98177.59
2018-10-03T17:08:57.021Z,98179.92
2018-10-03T17:11:26.837Z,98090.17
2018-10-03T17:14:17.679Z,98179.55
2018-10-03T17:16:47.507Z,98177.98
2018-10-03T17:19:17.512Z,98188.91
2018-10-03T17:21:47.819Z,98185.73
2018-10-03T17:24:17.699Z,98184.89
2018-10-03T17:26:47.677Z,98199.27
2018-10-03T17:29:17.885Z,98200.05
2018-10-03T17:31:48.135Z,98207.32
2018-10-03T17:34:18.608Z,98209.73
2018-10-03T17:36:50.660Z,98210.19
2018-10-03T17:39:21.268Z,98214.27
2018-10-03T17:41:51.219Z,98217.87
2018-10-03T17:44:21.874Z,98224.13
2018-10-03T17:46:53.283Z,98230.66
2018-10-03T17:49:23.227Z,98237.86
2018-10-03T17:51:53.071Z,98240.84
2018-10-03T17:54:23.015Z,98247.31
2018-10-03T17:56:52.892Z,98254.39
2018-10-03T17:59:22.931Z,98250.80
2018-10-03T18:01:55.580Z,98251.14
2018-10-03T18:04:25.575Z,98258.30
2018-10-03T18:06:55.605Z,98257.02
2018-10-03T18:09:25.704Z,98259.83
2018-10-03T18:11:55.653Z,98265.30
2018-10-03T18:14:26.200Z,98271.69
2018-10-03T18:16:56.500Z,96633.90
2018-10-03T18:19:26.781Z,98284.47
2018-10-03T18:21:57.089Z,98277.87
2018-10-03T20:09:31.214Z,98441.53
2018-10-03T20:12:15.497Z,98449.27
2018-10-03T20:14:46.310Z,98451.80
2018-10-03T20:17:16.737Z,98464.28
2018-10-03T20:19:47.386Z,98462.36
2018-10-03T20:22:18.050Z,98465.64
2018-10-03T20:24:48.907Z,98474.59
2018-10-03T20:27:19.605Z,98472.54
2018-10-03T20:29:50.342Z,98474.45
2018-10-03T20:32:20.800Z,98472.78
2018-10-03T20:34:51.008Z,98478.63
2018-10-03T20:37:21.974Z,98483.62
2018-10-03T20:39:51.861Z,98485.08
2018-10-03T20:42:22.975Z,98501.41
2018-10-03T20:44:53.766Z,98496.20
2018-10-03T20:47:24.095Z,98505.42
2018-10-03T20:49:55.022Z,98505.00
2018-10-03T20:52:25.405Z,98508.08
2018-10-03T20:54:55.412Z,98502.41
2018-10-03T20:57:26.219Z,98507.66
2018-10-03T20:59:56.827Z,98515.98
2018-10-03T21:02:27.021Z,98518.26
2018-10-03T21:04:57.393Z,98520.98
2018-10-03T21:07:28.313Z,98529.30
2018-10-03T21:09:58.667Z,98523.70
2018-10-03T21:12:29.349Z,98523.37
2018-10-03T21:14:59.325Z,98522.58
2018-10-03T21:17:29.821Z,98527.95
2018-10-03T21:20:00.024Z,98533.67
2018-10-03T21:22:30.389Z,98540.20
2018-10-03T21:25:00.681Z,98541.56
2018-10-03T21:27:30.868Z,98544.64
2018-10-03T21:30:01.541Z,98552.50
2018-10-03T21:32:31.982Z,98551.11
2018-10-03T21:35:02.288Z,98479.02
2018-10-03T21:37:32.733Z,98549.16
2018-10-03T21:40:02.971Z,98547.91
2018-10-03T21:42:33.197Z,98547.50
2018-10-03T21:45:03.212Z,98550.56
2018-10-03T21:47:33.324Z,98555.93
2018-10-03T21:50:03.154Z,98561.68
2018-10-03T21:52:32.993Z,98561.77
2018-10-03T21:55:02.842Z,98555.72
2018-10-03T21:57:32.756Z,98553.98
2018-10-03T22:00:02.623Z,98558.42
2018-10-03T22:02:32.399Z,98572.86
2018-10-03T22:05:02.299Z,98571.58
2018-10-03T22:07:32.183Z,98581.23
2018-10-03T22:10:01.997Z,98581.72
2018-10-03T22:12:31.904Z,98580.38
2018-10-03T22:15:01.728Z,98577.82
2018-10-03T22:17:35.677Z,98579.18
2018-10-03T22:20:05.535Z,98581.88
2018-10-03T22:22:35.417Z,98582.30
2018-10-03T22:25:05.156Z,98587.17
2018-10-03T22:27:35.076Z,98585.88
2018-10-03T22:30:05.138Z,98585.53
2018-10-03T22:32:35.008Z,98589.00
2018-10-03T22:35:04.856Z,98587.69
2018-10-03T22:37:34.785Z,98586.83
2018-10-03T22:40:04.652Z,98582.52
2018-10-03T22:42:34.495Z,98581.77
2018-10-03T22:45:04.369Z,98585.74
2018-10-03T22:47:34.326Z,98577.44
2018-10-03T22:50:04.297Z,98577.89
2018-10-03T22:52:34.121Z,98578.29
2018-10-03T22:55:04.018Z,98573.50
2018-10-03T22:57:33.855Z,98576.55
2018-10-03T23:00:03.695Z,98576.98
2018-10-03T23:02:33.566Z,98577.60
2018-10-03T23:05:03.389Z,98585.08
2018-10-03T23:07:33.236Z,98581.15
2018-10-03T23:10:03.060Z,98585.58
2018-10-03T23:12:32.876Z,98591.23
2018-10-03T23:15:02.709Z,98598.22
2018-10-03T23:17:32.600Z,98603.46
2018-10-03T23:20:02.395Z,98602.14
2018-10-03T23:22:32.152Z,98599.64
2018-10-03T23:25:02.019Z,98598.31
2018-10-03T23:27:31.905Z,98596.34
2018-10-03T23:30:01.797Z,98594.16
2018-10-03T23:32:31.583Z,98600.21
2018-10-03T23:35:01.460Z,98604.20
2018-10-03T23:37:31.322Z,98602.97
2018-10-03T23:40:01.188Z,98606.87
2018-10-03T23:42:31.008Z,98385.76
2018-10-03T23:45:00.750Z,98616.06
2018-10-03T23:47:30.662Z,98618.68
2018-10-03T23:50:00.419Z,98618.68
2018-10-03T23:52:30.280Z,98623.03
2018-10-03T23:55:00.139Z,98623.50
2018-10-03T23:57:30.085Z,98625.70
2018-10-03T23:59:59.891Z,98628.34
